Wilbur, West Virginia
Current Conditions -  °F | °C
As of 7:53 PM on Tuesday 21 Oct 2014 (Local Time) from KCKB Reporting Station
Light Rain Light Rain  
Wind Chill: 45°   Ceiling: 4000
Heat Index: 48°   Visibility: 10mi
Dew Point: 45°   Wind: 6mph
Humidity: 89%   Direction: NA
Pressure: 29.99"   Gusts: NA
Location:  39.4265°N, 80.8222°W
Report Text: KCKB 212353Z VRB05KT 10SM -RA FEW030 OVC040 09/07 A2999 RMK AO2 SLP153 6//// T00890072 10111 20089 53014 PNO $
Loading
Personal Weather Stations






























Interactive Weather Map
Tropical Storm Tracking
New forecast layout! Learn more

10-Day Weather Forecast

Advertisements
Track Severe Weather on mobile